Time;durP1;ratioP1;P1;durP2;ratioP2;P2;SDS_P1;SDS_P2;PMS_P1;PMS_P2;Temp;Humidity;BMP_temperature;BMP_pressure;BME280_temperature;BME280_humidity;BME280_pressure;Samples;Min_cycle;Max_cycle;Signal;HPM_P1;HPM_P2
2024/02/21 00:01:40;;;;;;;11.10;5.73;;;;;;;-2.00;81.84;101509.84;5054587;28;20072;-69
2024/02/21 00:04:05;;;;;;;8.47;5.37;;;;;;;-1.80;82.06;101543.78;5054870;28;20341;-69
2024/02/21 00:06:32;;;;;;;8.10;4.97;;;;;;;-1.87;80.77;101531.91;5055213;28;20325;-69
2024/02/21 00:08:58;;;;;;;8.90;5.03;;;;;;;-2.00;80.23;101515.91;5063627;28;20041;-69
2024/02/21 00:11:23;;;;;;;8.90;4.87;;;;;;;-1.92;80.83;101545.16;5064448;28;20306;-71
2024/02/21 00:13:50;;;;;;;6.97;4.83;;;;;;;-2.24;79.89;101491.69;5064832;28;20287;-71
2024/02/21 00:16:16;;;;;;;9.33;4.50;;;;;;;-2.07;80.69;101524.03;5069170;28;20041;-69
2024/02/21 00:18:42;;;;;;;6.00;4.43;;;;;;;-2.23;80.08;101501.19;5063212;28;20271;-68
2024/02/21 00:21:07;;;;;;;6.73;4.80;;;;;;;-2.05;80.18;101527.44;5063905;28;20264;-69
2024/02/21 00:23:33;;;;;;;8.90;5.20;;;;;;;-2.11;80.52;101535.53;5063679;28;20048;-69
2024/02/21 00:26:00;;;;;;;10.03;4.90;;;;;;;-2.28;80.63;101516.19;5062910;28;20077;-68
2024/02/21 00:28:26;;;;;;;5.80;4.77;;;;;;;-2.48;80.67;101497.03;5062069;28;20044;-66
2024/02/21 00:30:53;;;;;;;13.10;5.77;;;;;;;-2.61;81.07;101496.66;5063495;28;20275;-67
2024/02/21 00:33:19;;;;;;;13.60;5.77;;;;;;;-2.60;81.53;101509.66;5061121;28;20072;-70
2024/02/21 00:35:45;;;;;;;9.40;5.20;;;;;;;-2.71;83.15;101492.72;5062442;28;20338;-67
2024/02/21 00:38:11;;;;;;;8.03;5.80;;;;;;;-2.71;83.15;101503.16;5062372;28;20271;-68
2024/02/21 00:40:36;;;;;;;11.90;6.23;;;;;;;-2.67;84.36;101516.00;5062332;28;20305;-69
2024/02/21 00:43:02;;;;;;;12.13;5.43;;;;;;;-3.06;85.42;101450.63;5062667;28;20032;-67
2024/02/21 00:45:28;;;;;;;10.93;5.95;;;;;;;-2.75;83.15;101512.84;5059969;28;20071;-69
2024/02/21 00:47:53;;;;;;;9.17;5.70;;;;;;;-2.89;83.71;101517.72;5061955;28;20041;-69
2024/02/21 00:50:19;;;;;;;9.03;5.73;;;;;;;-3.21;83.76;101490.28;5061725;28;20123;-70
2024/02/21 00:52:45;;;;;;;9.20;5.37;;;;;;;-3.23;84.77;101499.91;5057344;28;20094;-67
2024/02/21 00:55:10;;;;;;;9.87;5.23;;;;;;;-3.39;86.78;101470.16;5056063;28;20037;-71
2024/02/21 00:57:36;;;;;;;11.07;5.50;;;;;;;-3.25;87.15;101493.91;5053140;28;20036;-72
2024/02/21 01:00:03;;;;;;;14.10;6.07;;;;;;;-3.28;88.04;101488.81;5055629;28;20028;-66
2024/02/21 01:02:32;;;;;;;9.18;6.50;;;;;;;-3.19;87.21;101498.88;5054413;28;20037;-69
2024/02/21 01:04:58;;;;;;;9.88;5.50;;;;;;;-3.23;87.53;101494.72;5053526;28;20052;-68
2024/02/21 01:07:24;;;;;;;11.73;7.23;;;;;;;-3.68;87.05;101451.22;5053772;28;20033;-70
2024/02/21 01:09:51;;;;;;;11.85;5.68;;;;;;;-3.61;86.69;101468.31;5058647;28;20123;-67
2024/02/21 01:12:17;;;;;;;9.25;5.95;;;;;;;-3.74;88.65;101456.66;5054679;28;20519;-71
2024/02/21 01:14:43;;;;;;;6.50;5.80;;;;;;;-3.46;89.06;101500.78;5051939;28;20132;-69
2024/02/21 01:17:08;;;;;;;11.10;6.30;;;;;;;-3.46;89.53;101509.44;5053446;28;20044;-69
2024/02/21 01:19:34;;;;;;;10.33;6.17;;;;;;;-3.50;90.05;101505.22;5053368;28;20041;-70
2024/02/21 01:21:59;;;;;;;7.87;4.87;;;;;;;-3.50;89.44;101506.97;5053050;28;20033;-69
2024/02/21 01:24:25;;;;;;;8.80;4.87;;;;;;;-3.72;88.02;101478.28;5051727;28;20559;-69
2024/02/21 01:26:51;;;;;;;11.57;5.43;;;;;;;-3.67;88.77;101507.59;5053242;28;20102;-70
2024/02/21 01:29:17;;;;;;;10.07;5.40;;;;;;;-3.72;90.42;101501.69;5054086;28;20400;-69
2024/02/21 01:31:42;;;;;;;9.37;6.53;;;;;;;-3.79;91.29;101488.03;5053858;28;20041;-69
2024/02/21 01:34:09;;;;;;;5.57;4.57;;;;;;;-3.80;91.04;101490.69;5052800;28;20123;-68
2024/02/21 01:36:35;;;;;;;11.57;5.17;;;;;;;-4.18;91.92;101427.81;5056427;28;20500;-69
2024/02/21 01:39:00;;;;;;;11.27;5.70;;;;;;;-3.70;92.30;101506.84;5051695;28;20033;-69
2024/02/21 01:41:26;;;;;;;9.57;5.30;;;;;;;-3.76;92.43;101489.66;5054415;28;20413;-69
2024/02/21 01:43:51;;;;;;;8.30;4.97;;;;;;;-3.69;91.56;101509.41;5056378;28;20115;-67
2024/02/21 01:46:18;;;;;;;8.03;5.37;;;;;;;-3.73;91.03;101491.34;5057002;28;20102;-69
2024/02/21 01:48:45;;;;;;;9.20;5.22;;;;;;;-3.52;91.19;101507.03;5052199;28;20033;-69
2024/02/21 01:51:11;;;;;;;9.57;4.95;;;;;;;-3.47;90.29;101512.94;5051037;28;20405;-68
2024/02/21 01:53:42;;;;;;;21.33;9.47;;;;;;;-3.47;91.68;101494.72;5052142;28;20029;-69
2024/02/21 01:56:08;;;;;;;9.55;6.45;;;;;;;-3.49;90.67;101477.44;5052918;28;20037;-67
2024/02/21 01:58:37;;;;;;;11.13;6.67;;;;;;;-3.40;89.01;101494.50;5052417;28;20361;-69
2024/02/21 02:01:03;;;;;;;9.82;5.78;;;;;;;-3.61;90.18;101454.44;5053221;28;20040;-68
2024/02/21 02:03:29;;;;;;;10.50;5.13;;;;;;;-3.28;89.11;101514.88;5051484;28;20033;-70
2024/02/21 02:05:55;;;;;;;8.43;5.43;;;;;;;-3.33;88.83;101490.75;5041932;28;20048;-68
2024/02/21 02:08:22;;;;;;;8.33;5.97;;;;;;;-3.33;88.96;101477.72;5033057;28;20148;-71
2024/02/21 02:10:48;;;;;;;8.35;5.70;;;;;;;-3.57;88.58;101430.00;5032749;28;20493;-68
2024/02/21 02:13:15;;;;;;;9.32;5.68;;;;;;;-3.63;88.66;101436.28;5033172;28;20049;-68
2024/02/21 02:15:42;;;;;;;7.63;4.97;;;;;;;-3.40;88.82;101497.94;5030968;28;20041;-68
2024/02/21 02:18:08;;;;;;;8.52;5.40;;;;;;;-4.16;89.04;101383.56;5031376;28;20048;-70
2024/02/21 02:20:35;;;;;;;7.82;4.78;;;;;;;-3.61;88.40;101480.47;5030474;28;20045;-68
2024/02/21 02:23:07;;;;;;;8.55;5.18;;;;;;;-3.77;89.40;101475.81;5032016;28;20044;-69
2024/02/21 02:25:35;;;;;;;11.38;5.15;;;;;;;-3.64;90.40;101502.28;5032114;28;20053;-68
2024/02/21 02:28:01;;;;;;;8.40;4.68;;;;;;;-3.69;90.97;101492.94;5032391;28;20497;-68
2024/02/21 02:30:26;;;;;;;7.20;4.80;;;;;;;-3.75;91.01;101497.47;5032839;28;20037;-67
2024/02/21 02:32:52;;;;;;;9.03;4.90;;;;;;;-3.86;91.04;101483.09;5040565;28;20047;-66
2024/02/21 02:35:17;;;;;;;9.83;5.10;;;;;;;-3.81;91.78;101499.41;5040056;28;20090;-67
2024/02/21 02:37:50;;;;;;;9.00;5.83;;;;;;;-3.87;92.75;101495.25;5039410;28;20120;-68
2024/02/21 02:40:16;;;;;;;10.57;5.32;;;;;;;-3.91;93.30;101505.84;5040351;28;20222;-69
2024/02/21 02:42:41;;;;;;;11.40;6.07;;;;;;;-4.12;93.70;101482.22;5040983;28;20080;-66
2024/02/21 02:45:07;;;;;;;11.53;6.13;;;;;;;-4.34;92.77;101450.03;5043171;28;20035;-67
2024/02/21 02:47:34;;;;;;;11.07;7.33;;;;;;;-4.15;92.96;101484.94;5041998;28;20404;-68
2024/02/21 02:50:00;;;;;;;10.63;6.03;;;;;;;-4.06;93.12;101502.84;5040345;28;20275;-68
2024/02/21 02:52:26;;;;;;;14.93;6.97;;;;;;;-4.06;92.46;101502.84;5041163;28;20650;-65
2024/02/21 02:54:51;;;;;;;9.37;7.30;;;;;;;-4.32;91.74;101465.63;5041285;28;20037;-67
2024/02/21 02:57:17;;;;;;;8.17;6.27;;;;;;;-4.39;91.67;101464.94;5040512;28;20103;-68
2024/02/21 02:59:50;;;;;;;8.70;6.40;;;;;;;-4.29;92.13;101497.56;5040979;28;20040;-69
2024/02/21 03:02:16;;;;;;;9.95;6.32;;;;;;;-4.50;92.81;101483.50;5040222;28;20271;-69
2024/02/21 03:04:41;;;;;;;7.32;6.00;;;;;;;-4.58;93.33;101469.06;5036182;28;20033;-67
2024/02/21 03:07:07;;;;;;;8.27;5.93;;;;;;;-4.63;93.21;101465.72;5038254;28;20370;-68
2024/02/21 03:09:33;;;;;;;8.97;5.73;;;;;;;-4.50;93.71;101493.06;5035103;28;20029;-69
2024/02/21 03:12:02;;;;;;;16.13;5.73;;;;;;;-4.71;94.22;101461.63;5032469;28;20215;-67
2024/02/21 03:14:29;;;;;;;6.68;5.40;;;;;;;-5.55;94.33;101330.94;5034806;28;20040;-70
2024/02/21 03:16:54;;;;;;;7.43;6.13;;;;;;;-4.52;95.42;101503.50;5037588;28;20053;-66
2024/02/21 03:19:20;;;;;;;6.97;5.50;;;;;;;-4.71;96.51;101458.19;5037413;28;20355;-69
2024/02/21 03:21:46;;;;;;;8.33;5.50;;;;;;;-4.59;95.81;101480.34;5036763;28;20045;-69
2024/02/21 03:24:11;;;;;;;8.80;6.87;;;;;;;-4.43;95.95;101499.75;5038546;28;20034;-68
2024/02/21 03:26:37;;;;;;;8.00;5.47;;;;;;;-4.43;94.93;101491.94;5039549;28;20060;-67
2024/02/21 03:29:03;;;;;;;9.33;5.63;;;;;;;-4.41;96.61;101498.78;5043911;28;20045;-68
2024/02/21 03:31:29;;;;;;;8.80;5.40;;;;;;;-4.45;96.69;101497.19;5042621;28;20040;-67
2024/02/21 03:33:55;;;;;;;8.80;6.13;;;;;;;-4.43;97.30;101499.75;5043870;28;20045;-65
2024/02/21 03:36:20;;;;;;;9.60;6.13;;;;;;;-5.43;97.03;101338.38;5043123;28;20065;-67
2024/02/21 03:38:46;;;;;;;9.90;6.10;;;;;;;-4.62;97.07;101483.91;5043984;28;20072;-68
2024/02/21 03:41:12;;;;;;;8.77;5.10;;;;;;;-4.61;97.00;101489.97;5044697;28;20068;-68
2024/02/21 03:43:38;;;;;;;9.93;5.60;;;;;;;-5.53;98.03;101339.53;5043777;28;20057;-69
2024/02/21 03:46:04;;;;;;;7.63;5.18;;;;;;;-4.58;97.52;101495.91;5046166;28;20033;-67
2024/02/21 03:48:30;;;;;;;8.03;5.30;;;;;;;-4.48;97.64;101506.84;5041939;28;20045;-68
2024/02/21 03:50:55;;;;;;;14.70;5.20;;;;;;;-4.47;98.79;101503.34;5043747;28;20417;-69
2024/02/21 03:53:21;;;;;;;7.70;5.87;;;;;;;-4.57;97.54;101486.34;5043476;28;20038;-65
2024/02/21 03:55:46;;;;;;;10.17;6.47;;;;;;;-4.58;96.79;101500.25;5043280;28;20037;-71
2024/02/21 03:58:12;;;;;;;10.43;7.03;;;;;;;-4.80;97.17;101477.53;5036298;28;20029;-69
2024/02/21 04:00:39;;;;;;;13.13;7.10;;;;;;;-4.80;98.04;101480.13;5037758;28;20038;-68
2024/02/21 04:03:04;;;;;;;15.18;7.90;;;;;;;-4.85;97.13;101479.41;5034365;28;20465;-70
2024/02/21 04:05:30;;;;;;;9.13;6.80;;;;;;;-4.79;97.84;101492.22;5034788;28;20068;-72
2024/02/21 04:07:55;;;;;;;11.80;7.57;;;;;;;-4.88;97.94;101482.13;5040340;28;20041;-68
2024/02/21 04:10:21;;;;;;;9.43;7.60;;;;;;;-4.98;97.71;101470.28;5037442;28;20037;-67
2024/02/21 04:12:47;;;;;;;16.40;7.67;;;;;;;-4.95;97.87;101484.94;5037589;28;20037;-66
2024/02/21 04:15:12;;;;;;;11.87;6.90;;;;;;;-5.00;98.13;101482.47;5040579;28;20503;-69
2024/02/21 04:18:03;;;;;;;15.85;8.63;;;;;;;-5.00;99.90;101485.06;5039970;28;20128;-71
2024/02/21 04:20:29;;;;;;;14.87;7.33;;;;;;;-5.10;100.00;101470.66;5039426;28;20045;-68
2024/02/21 04:22:55;;;;;;;12.90;7.32;;;;;;;-5.12;100.00;101452.53;5037825;28;20557;-69
2024/02/21 04:25:22;;;;;;;8.73;6.63;;;;;;;-4.82;100.00;101473.28;5037709;28;20501;-69
2024/02/21 04:27:50;;;;;;;11.50;6.53;;;;;;;-4.78;100.00;101439.34;5038383;28;20045;-70
2024/02/21 04:30:17;;;;;;;12.77;6.95;;;;;;;-4.43;99.13;101452.94;5037253;28;20100;-68
2024/02/21 04:32:42;;;;;;;12.38;6.80;;;;;;;-4.45;97.47;101446.94;5036830;28;20505;-72
2024/02/21 04:35:08;;;;;;;11.87;6.70;;;;;;;-4.63;95.38;101413.75;5030573;28;20068;-69
2024/02/21 04:37:34;;;;;;;14.97;6.00;;;;;;;-4.35;95.44;101458.75;5041280;28;20060;-69
2024/02/21 04:39:59;;;;;;;13.30;6.03;;;;;;;-4.21;95.27;101482.56;5035524;28;20500;-70
2024/02/21 04:42:25;;;;;;;8.83;7.33;;;;;;;-4.26;95.73;101468.84;5034781;28;20385;-71
2024/02/21 04:44:51;;;;;;;11.50;7.57;;;;;;;-4.25;94.20;101470.56;5039732;28;20048;-72
2024/02/21 04:47:35;;;;;;;12.47;5.93;;;;;;;-4.21;93.77;101474.75;5039651;28;20041;-70
2024/02/21 04:50:00;;;;;;;10.77;6.28;;;;;;;-4.11;95.24;101491.72;5034454;28;20049;-69
2024/02/21 04:52:26;;;;;;;11.40;7.67;;;;;;;-4.29;94.04;101455.09;5041290;28;20045;-69
2024/02/21 04:54:52;;;;;;;11.90;7.37;;;;;;;-4.61;93.75;101406.78;5043223;28;20073;-71
2024/02/21 04:57:17;;;;;;;13.90;8.30;;;;;;;-4.46;94.73;101434.84;5044004;28;20034;-69
2024/02/21 04:59:45;;;;;;;10.87;6.70;;;;;;;-4.27;96.10;101464.56;5047960;28;20041;-68
2024/02/21 05:02:11;;;;;;;9.07;5.82;;;;;;;-5.15;95.52;101288.19;5044764;28;20047;-68
2024/02/21 05:04:38;;;;;;;9.98;6.72;;;;;;;-3.82;95.41;101487.28;5044041;28;20041;-72
2024/02/21 05:07:04;;;;;;;9.95;5.57;;;;;;;-3.83;94.77;101475.19;5039423;28;20029;-68
2024/02/21 05:09:30;;;;;;;11.52;5.97;;;;;;;-3.73;94.19;101481.78;5018311;28;20033;-71
2024/02/21 05:11:56;;;;;;;8.30;5.37;;;;;;;-3.53;93.22;101494.91;5034299;28;20076;-71
2024/02/21 05:14:21;;;;;;;9.53;6.13;;;;;;;-3.44;92.95;101498.97;5034399;28;20445;-71
2024/02/21 05:16:47;;;;;;;7.47;5.83;;;;;;;-3.55;91.88;101470.69;5035308;28;20492;-70
2024/02/21 05:19:12;;;;;;;8.70;7.53;;;;;;;-4.05;92.86;101391.81;5033631;28;20045;-69
2024/02/21 05:21:38;;;;;;;11.83;7.33;;;;;;;-3.43;91.42;101479.84;5033393;28;20108;-68
2024/02/21 05:24:05;;;;;;;10.37;6.53;;;;;;;-3.49;91.66;101480.88;5033509;28;20040;-70
2024/02/21 05:26:30;;;;;;;10.45;7.80;;;;;;;-3.64;91.58;101433.75;5031935;28;20056;-72
2024/02/21 05:28:56;;;;;;;13.00;7.13;;;;;;;-3.52;92.37;101448.91;5032735;28;20045;-70
2024/02/21 05:31:21;;;;;;;11.13;6.93;;;;;;;-3.70;91.00;101429.63;5033521;28;20432;-70
2024/02/21 05:33:47;;;;;;;10.37;6.87;;;;;;;-4.14;91.61;101346.19;5032771;28;20079;-69
2024/02/21 05:36:13;;;;;;;16.50;9.00;;;;;;;-3.16;91.33;101494.44;5040361;28;20080;-67
2024/02/21 05:38:39;;;;;;;13.20;7.63;;;;;;;-3.28;89.83;101479.25;5038700;28;20040;-71
2024/02/21 05:41:05;;;;;;;10.90;6.53;;;;;;;-3.75;89.77;101410.72;5035261;28;20120;-71
2024/02/21 05:43:31;;;;;;;10.25;6.78;;;;;;;-3.30;90.32;101501.06;5033891;28;20272;-71
2024/02/21 05:45:57;;;;;;;10.33;6.17;;;;;;;-3.36;90.06;101488.25;5033051;28;20042;-69
2024/02/21 05:48:23;;;;;;;12.93;6.87;;;;;;;-3.39;90.33;101483.16;5032683;28;20198;-70
2024/02/21 05:50:49;;;;;;;9.85;6.07;;;;;;;-3.28;91.35;101483.63;5031733;28;20430;-70
2024/02/21 05:53:15;;;;;;;11.95;7.00;;;;;;;-3.22;90.94;101493.78;5032363;28;20048;-72
2024/02/21 05:55:41;;;;;;;9.37;6.63;;;;;;;-3.28;91.05;101467.97;5031744;28;20033;-73
2024/02/21 05:58:09;;;;;;;12.20;7.67;;;;;;;-3.22;91.48;101478.16;5032541;28;20041;-69
2024/02/21 06:00:35;;;;;;;10.43;7.18;;;;;;;-3.12;91.55;101489.97;5031793;28;20044;-69
2024/02/21 06:03:10;;;;;;;14.48;6.75;;;;;;;-3.06;91.10;101483.66;5032428;28;20050;-70
2024/02/21 06:05:39;;;;;;;16.43;6.67;;;;;;;-3.09;90.67;101468.16;5032265;28;20046;-68
2024/02/21 06:08:05;;;;;;;;;;;;;;;-2.89;91.36;101486.47;5038216;28;20104;-69
2024/02/21 06:10:33;;;;;;;14.73;8.07;;;;;;;-2.89;90.52;101487.34;5048840;28;19917;-69
2024/02/21 06:12:59;;;;;;;13.02;8.13;;;;;;;-2.96;89.21;101469.38;5030303;28;20033;-71
2024/02/21 06:15:25;;;;;;;17.70;8.43;;;;;;;-2.95;89.20;101484.94;5031438;28;20033;-69
2024/02/21 06:17:50;;;;;;;13.47;7.13;;;;;;;-3.09;89.14;101473.38;5031659;28;20029;-70
2024/02/21 06:20:16;;;;;;;13.17;6.80;;;;;;;-3.04;89.47;101487.91;5031718;28;20042;-70
2024/02/21 06:22:42;;;;;;;15.77;7.85;;;;;;;-3.05;89.67;101494.03;5028008;28;20745;-69
2024/02/21 06:25:11;;;;;;;15.50;8.20;;;;;;;-3.30;90.63;101461.97;5046692;28;20093;-70
2024/02/21 06:27:36;;;;;;;;;;;;;;;-3.08;90.16;101496.75;5031955;28;20050;-69
2024/02/21 06:30:02;;;;;;;12.50;7.20;;;;;;;-3.18;89.99;101484.97;5022183;28;19924;-68
2024/02/21 06:32:30;;;;;;;17.48;9.27;;;;;;;-3.21;90.33;101477.25;5031386;28;20485;-67
2024/02/21 06:34:57;;;;;;;13.07;7.07;;;;;;;-3.16;91.41;101477.97;5030920;28;20041;-69
2024/02/21 06:37:22;;;;;;;12.85;6.68;;;;;;;-2.98;91.78;101495.50;5029987;28;20038;-69
2024/02/21 06:39:48;;;;;;;14.80;7.07;;;;;;;-2.89;90.92;101489.94;5031470;28;20591;-69
2024/02/21 06:42:13;;;;;;;10.37;6.80;;;;;;;-2.93;90.66;101475.31;5031089;28;20037;-69
2024/02/21 06:44:40;;;;;;;17.40;10.87;;;;;;;-3.00;90.30;101466.03;5023937;28;20034;-69
2024/02/21 06:47:08;;;;;;;18.88;8.23;;;;;;;-2.93;89.77;101483.13;5030538;28;20048;-69
2024/02/21 06:49:34;;;;;;;12.27;8.03;;;;;;;-3.18;91.14;101427.63;5028023;28;20042;-68
2024/02/21 06:52:00;;;;;;;13.73;8.87;;;;;;;-2.75;90.06;101483.34;5029862;28;20132;-67
2024/02/21 06:54:25;;;;;;;11.00;7.57;;;;;;;-2.65;90.75;101488.09;5025111;28;20570;-70
2024/02/21 06:56:51;;;;;;;15.53;7.80;;;;;;;-2.69;90.89;101475.25;5054910;28;20412;-69
2024/02/21 06:59:16;;;;;;;12.83;7.03;;;;;;;-2.57;89.75;101482.63;5029652;28;20072;-69
2024/02/21 07:01:49;;;;;;;15.97;8.00;;;;;;;-2.56;89.96;101479.09;5026684;28;20141;-68
2024/02/21 07:04:15;;;;;;;10.77;7.85;;;;;;;-2.61;89.60;101455.78;5029552;28;20124;-69
2024/02/21 07:06:41;;;;;;;11.77;7.43;;;;;;;-2.51;89.30;101461.50;5032568;28;20511;-67
2024/02/21 07:09:06;;;;;;;12.47;7.90;;;;;;;-2.43;88.36;101462.03;5034811;28;20042;-69
2024/02/21 07:11:32;;;;;;;12.77;7.20;;;;;;;-2.36;87.76;101492.16;5034707;28;20040;-66
2024/02/21 07:13:57;;;;;;;12.33;7.87;;;;;;;-2.57;88.33;101469.56;5034740;28;20037;-67
2024/02/21 07:16:23;;;;;;;13.73;6.67;;;;;;;-2.38;88.67;101488.75;5034604;28;20061;-68
2024/02/21 07:18:48;;;;;;;10.00;6.63;;;;;;;-2.46;88.22;101469.97;5032149;28;20061;-66
2024/02/21 07:21:15;;;;;;;12.17;6.43;;;;;;;-2.41;88.66;101488.03;5034831;28;20099;-67
2024/02/21 07:23:43;;;;;;;9.85;6.93;;;;;;;-2.36;89.14;101481.72;5034403;28;20049;-68
2024/02/21 07:26:10;;;;;;;11.05;6.15;;;;;;;-2.29;89.84;101496.25;5032334;28;20052;-69
2024/02/21 07:28:36;;;;;;;8.93;6.10;;;;;;;-2.32;88.95;101491.13;5028413;28;20551;-67
2024/02/21 07:31:02;;;;;;;9.03;6.30;;;;;;;-2.40;89.35;101464.50;5031679;28;20031;-71
2024/02/21 07:33:28;;;;;;;10.93;6.28;;;;;;;-2.07;88.91;101495.31;5034397;28;20055;-70
2024/02/21 07:35:54;;;;;;;12.67;7.27;;;;;;;-2.43;87.07;101448.97;5032918;28;20493;-69
2024/02/21 07:38:19;;;;;;;9.63;6.97;;;;;;;-2.40;88.33;101464.50;5032092;28;20042;-68
2024/02/21 07:40:45;;;;;;;10.23;5.97;;;;;;;-2.43;88.32;101459.41;5033400;28;20041;-68
2024/02/21 07:43:11;;;;;;;9.73;6.53;;;;;;;-2.62;88.26;101453.25;5033692;28;20117;-68
2024/02/21 07:45:38;;;;;;;9.53;6.00;;;;;;;-2.56;88.95;101466.06;5034023;28;20145;-67
2024/02/21 07:48:09;;;;;;;10.73;5.63;;;;;;;-2.38;90.15;101491.38;5033945;28;20041;-70
2024/02/21 07:50:35;;;;;;;11.93;7.70;;;;;;;-2.47;89.98;101465.69;5031729;28;20025;-65
2024/02/21 07:53:00;;;;;;;9.70;5.73;;;;;;;-2.27;89.91;101489.19;5033933;28;20044;-76
2024/02/21 07:55:26;;;;;;;11.57;7.00;;;;;;;-2.39;89.55;101465.34;5033366;28;20038;-68
2024/02/21 07:57:52;;;;;;;9.73;6.07;;;;;;;-2.41;89.10;101452.38;5031565;28;20502;-70
2024/02/21 08:00:19;;;;;;;10.30;6.53;;;;;;;-2.28;89.81;101476.22;5024063;28;20068;-70
2024/02/21 08:02:46;;;;;;;10.65;5.40;;;;;;;-2.51;87.84;101430.19;5033161;28;20132;-69
2024/02/21 08:05:14;;;;;;;10.85;6.28;;;;;;;-2.25;87.58;101463.03;5027264;28;20489;-73
2024/02/21 08:07:40;;;;;;;10.02;6.47;;;;;;;-2.40;89.13;101451.47;5032984;28;20068;-69
2024/02/21 08:10:09;;;;;;;9.43;5.97;;;;;;;-2.10;89.45;101485.88;5034012;28;20041;-70
2024/02/21 08:12:35;;;;;;;;;;;;;;;-1.93;89.13;101479.94;5026878;28;20034;-70
2024/02/21 08:15:01;;;;;;;13.20;6.30;;;;;;;-1.85;89.14;101469.16;5019390;28;20373;-69
2024/02/21 08:17:26;;;;;;;13.02;6.20;;;;;;;-1.82;88.01;101464.66;5033022;28;20128;-71
2024/02/21 08:19:52;;;;;;;11.07;7.47;;;;;;;-1.92;88.30;101435.50;5031911;28;20132;-71
2024/02/21 08:22:17;;;;;;;11.57;6.50;;;;;;;-1.62;87.60;101464.66;5064487;28;20076;-69
2024/02/21 08:24:45;;;;;;;13.00;7.73;;;;;;;-1.39;87.01;101466.25;5032042;28;20481;-70
2024/02/21 08:27:11;;;;;;;17.05;7.53;;;;;;;-1.50;85.65;101446.72;5033782;28;20045;-70
2024/02/21 08:29:37;;;;;;;13.93;6.20;;;;;;;-1.45;86.02;101452.59;5033696;28;20045;-71
2024/02/21 08:32:02;;;;;;;10.40;7.00;;;;;;;-1.41;85.78;101457.63;5033572;28;20098;-72
2024/02/21 08:34:30;;;;;;;11.30;6.13;;;;;;;-1.35;86.04;101451.28;5032529;28;20038;-71
2024/02/21 08:36:55;;;;;;;13.00;6.70;;;;;;;-2.08;86.19;101308.34;5013807;28;20045;-70
2024/02/21 08:39:21;;;;;;;12.70;6.20;;;;;;;-1.14;85.79;101463.38;5012665;28;20273;-70
2024/02/21 08:41:47;;;;;;;10.87;6.57;;;;;;;-1.33;84.85;101441.59;5014016;28;20119;-69
2024/02/21 08:44:12;;;;;;;11.53;6.53;;;;;;;-1.43;85.57;101435.09;5012590;28;21291;-72
2024/02/21 08:46:40;;;;;;;10.73;6.20;;;;;;;-1.23;85.93;101461.16;5013927;28;20045;-71
2024/02/21 08:49:06;;;;;;;11.13;6.97;;;;;;;-1.35;85.99;101451.28;5013438;28;20501;-73
2024/02/21 08:51:31;;;;;;;15.13;7.50;;;;;;;-1.39;85.96;101447.09;5013516;28;20269;-68
2024/02/21 08:53:58;;;;;;;10.47;7.27;;;;;;;-1.39;87.23;101447.09;5012473;28;20284;-71
2024/02/21 08:56:24;;;;;;;13.63;6.97;;;;;;;-1.27;87.46;101459.59;5013636;28;20124;-70
2024/02/21 08:58:49;;;;;;;11.43;6.30;;;;;;;-1.30;86.99;101449.28;5018526;28;20271;-70
2024/02/21 09:01:15;;;;;;;6.97;5.50;;;;;;;-1.41;86.59;101446.34;5033745;28;20128;-72
2024/02/21 09:03:41;;;;;;;10.23;6.30;;;;;;;-1.24;87.25;101467.28;5033522;28;20037;-70
2024/02/21 09:06:07;;;;;;;8.90;5.97;;;;;;;-1.40;87.14;101437.56;5032499;28;20038;-71
2024/02/21 09:08:34;;;;;;;11.77;6.43;;;;;;;-1.29;86.98;101443.16;5033140;28;20041;-72
2024/02/21 09:11:01;;;;;;;11.23;7.23;;;;;;;-1.06;86.29;101463.00;5032496;28;20279;-72
2024/02/21 09:13:27;;;;;;;12.27;7.30;;;;;;;-1.24;85.65;101451.63;5032650;28;20306;-71
2024/02/21 09:15:53;;;;;;;9.60;6.20;;;;;;;-1.25;87.15;101452.53;5033484;28;20314;-70
2024/02/21 09:18:18;;;;;;;12.67;7.77;;;;;;;-1.40;87.25;101421.91;5033465;28;20632;-71
2024/02/21 09:20:44;;;;;;;15.63;8.57;;;;;;;-1.17;87.26;101450.41;5032659;28;20041;-71
2024/02/21 09:23:11;;;;;;;8.83;6.70;;;;;;;-1.12;86.76;101458.91;5032796;28;20117;-72
2024/02/21 09:25:39;;;;;;;12.47;6.33;;;;;;;-1.01;86.98;101459.25;5032806;28;20369;-70
2024/02/21 09:28:06;;;;;;;;;;;;;;;-0.96;87.10;101457.25;5034158;28;20299;-75
2024/02/21 09:30:31;;;;;;;8.27;6.10;;;;;;;-1.11;86.83;101454.53;5033102;28;19917;-73
2024/02/21 09:32:59;;;;;;;13.53;8.13;;;;;;;-1.19;87.46;101439.19;5031645;28;20660;-72
2024/02/21 09:35:27;;;;;;;15.20;9.17;;;;;;;-1.23;87.85;101432.41;5031579;28;20042;-73
2024/02/21 09:37:57;;;;;;;12.23;8.17;;;;;;;-1.19;87.85;101452.25;5033398;28;20303;-74
2024/02/21 09:40:24;;;;;;;9.70;6.73;;;;;;;-1.32;88.50;101436.28;5033468;28;20767;-72
2024/02/21 09:43:01;;;;;;;11.57;6.47;;;;;;;-1.27;88.92;101433.47;5031519;28;20268;-73
2024/02/21 09:45:27;;;;;;;8.90;6.33;;;;;;;-1.23;89.15;101445.47;5031840;28;20720;-70
2024/02/21 09:48:17;;;;;;;11.47;6.93;;;;;;;-1.26;89.87;101448.22;5032576;28;20303;-73
2024/02/21 09:50:43;;;;;;;12.67;6.33;;;;;;;-1.31;89.93;101440.59;5033024;28;20041;-74
2024/02/21 09:53:13;;;;;;;11.77;7.13;;;;;;;-1.20;90.56;101445.31;5033345;28;20323;-71
2024/02/21 09:55:41;;;;;;;12.57;7.93;;;;;;;-1.46;90.81;101380.34;5031754;28;20300;-73
2024/02/21 09:58:08;;;;;;;11.53;6.97;;;;;;;-1.05;89.78;101441.16;5033415;28;20371;-71
2024/02/21 10:00:35;;;;;;;14.33;7.63;;;;;;;-1.26;90.23;101407.25;5031108;28;20281;-74
2024/02/21 10:03:07;;;;;;;13.90;7.00;;;;;;;-1.30;90.49;101389.19;5030036;28;20283;-75
2024/02/21 10:05:36;;;;;;;10.40;7.33;;;;;;;-1.11;90.74;101402.25;5016989;28;20337;-69
2024/02/21 10:08:04;;;;;;;12.70;8.03;;;;;;;-0.85;90.92;101425.41;5026592;28;20307;-70
2024/02/21 10:10:30;;;;;;;11.63;7.63;;;;;;;-0.85;90.15;101401.84;5011706;28;20370;-71
2024/02/21 10:12:57;;;;;;;18.37;9.30;;;;;;;-0.89;89.93;101409.91;5010448;28;20384;-72
2024/02/21 10:15:24;;;;;;;16.87;7.50;;;;;;;-1.24;90.07;101349.69;5019910;28;20029;-72
2024/02/21 10:18:03;;;;;;;16.07;8.37;;;;;;;-1.00;91.20;101398.19;5029413;28;20267;-73
2024/02/21 10:20:29;;;;;;;14.87;8.40;;;;;;;-0.90;91.83;101410.81;5031756;28;20272;-71
2024/02/21 10:23:03;;;;;;;22.70;10.57;;;;;;;-0.98;91.26;101396.34;5026617;28;20360;-71
2024/02/21 10:25:30;;;;;;;28.60;10.83;;;;;;;-1.25;92.37;101377.59;5012528;28;20065;-71
2024/02/21 10:27:56;;;;;;;23.57;10.67;;;;;;;-1.14;93.21;101403.25;5011592;28;20367;-71
2024/02/21 10:30:22;;;;;;;21.70;10.17;;;;;;;-1.43;93.19;101328.84;5028097;28;20415;-71
2024/02/21 10:32:54;;;;;;;22.60;9.63;;;;;;;-0.87;93.25;101394.97;5031391;28;20037;-72
2024/02/21 10:35:32;;;;;;;20.07;8.70;;;;;;;-0.84;92.91;101418.41;5030776;28;20131;-75
2024/02/21 10:37:59;;;;;;;20.23;9.53;;;;;;;-0.98;93.81;101401.59;5012748;28;20281;-75
2024/02/21 10:40:31;;;;;;;24.47;11.33;;;;;;;-0.93;94.16;101422.28;5026358;28;20355;-73
2024/02/21 10:42:59;;;;;;;26.37;11.57;;;;;;;-1.10;95.33;101399.56;5029236;28;20656;-73
2024/02/21 10:45:45;;;;;;;18.30;8.73;;;;;;;-1.02;96.20;101407.03;5027585;28;20257;-72
2024/02/21 10:48:13;;;;;;;27.47;12.13;;;;;;;-0.95;96.61;101414.50;5014439;28;20755;-72
2024/02/21 10:50:59;;;;;;;24.70;11.67;;;;;;;-0.91;95.94;101411.75;5022126;28;20894;-72
2024/02/21 10:53:35;;;;;;;23.27;11.57;;;;;;;-1.12;96.69;101370.03;5029228;28;20302;-72
2024/02/21 10:56:11;;;;;;;19.23;10.47;;;;;;;-1.10;95.84;101362.97;5018407;28;20280;-71
2024/02/21 10:58:37;;;;;;;23.07;11.23;;;;;;;-0.88;95.40;101390.66;5011391;28;20618;-71
2024/02/21 11:01:05;;;;;;;25.07;10.87;;;;;;;-0.77;96.41;101396.25;4993819;28;20343;-71
2024/02/21 11:03:31;;;;;;;19.97;10.17;;;;;;;-1.01;96.23;101364.28;5011350;28;20253;-70
2024/02/21 11:05:58;;;;;;;24.00;12.10;;;;;;;-0.89;96.42;101395.06;5011318;28;20273;-71
2024/02/21 11:08:25;;;;;;;19.40;10.50;;;;;;;-0.91;96.73;101381.22;5011911;28;20308;-71
2024/02/21 11:10:50;;;;;;;24.00;9.93;;;;;;;-0.99;96.12;101371.13;5011576;28;20273;-71
2024/02/21 11:13:16;;;;;;;20.07;10.97;;;;;;;-0.84;96.37;101411.41;5013290;28;20350;-69
2024/02/21 11:15:42;;;;;;;16.00;8.90;;;;;;;-0.98;96.95;101374.59;5013156;28;20046;-74
2024/02/21 11:18:08;;;;;;;22.40;10.20;;;;;;;-1.02;97.00;101355.59;5028567;28;20042;-72